Terminal Aerodrome Forecast
Issued by NWS

Home | Current Version | Previous Version | Text Only | Print | Product List | Glossary On
Versions: 1 2 3 4 5 6 7 8 9 10 11 12 13 14 15
000
FTUS46 KSTO 131136
TAFSAC
TAF
KSAC 131136Z 1312/1412 VRB04KT 2SM BR SKC
      TEMPO 1312/1316 1/2SM FG
     FM131600 VRB04KT P6SM SKC
     FM140600 VRB04KT 4SM BR SKC=

USA.gov is the U.S. government's official web portal to all federal, state and local government web resources and services.